»·PEaware :: N656FP KCRQ-KVGT

N656FP :: KCRQ-KVGT

FLIGHT INFORMATION

Flight Status: Arrived
Operator: Privately registered:
United States
More flights under this callsign
Pilot: Skye D. (10623)
Aircraft: ECLIPSE 500
(EA50)
More flights by this aircraft type
Origin: KCRQ McClellan-Palomar
United States
Destination: KVGT North Las Vegas
United States
More flights between these airports :: More routes between these airports
Route: +JLI TRM TNP V514 GFS V538 LAS
File this flight plan on PilotEdge
Remarks:
Altitude:
(Current/Filed)
19,000ft
Speed:
(Current/Filed)
337kts
Departed: 19-Feb-18 12:18 PM
Arrived: 19-Feb-18 01:14 PM
Distance/Time
Traveled:
211nm/0:56
Distance/Time
To Go:
Arrived

Flight Plot

Page will automatically refresh every two minutes.

Flight plan parsing failed; only flown route is shown


Map Options




Map Legend


Flown Route
Filed Route
Departure Airport
Arrival Airport
Navaid (VOR, NDB)
Fix

Horizontal Profiles

Position Reports

Time Latitude Longitude Heading Altitude Ground
Speed
19-Feb-18 12:11 33.126666 -117.280669 78 334ft 0kts
19-Feb-18 12:12 33.126666 -117.280669 78 334ft 0kts
19-Feb-18 12:13 33.126666 -117.280669 78 334ft 0kts
19-Feb-18 12:14 33.126666 -117.280669 78 334ft 0kts
19-Feb-18 12:15 33.126666 -117.280669 78 334ft 0kts
19-Feb-18 12:16 33.126666 -117.280669 78 334ft 0kts
19-Feb-18 12:17 33.126666 -117.280669 78 334ft 0kts
19-Feb-18 12:18 33.126666 -117.280669 78 334ft 0kts
19-Feb-18 12:19 33.126666 -117.280669 78 334ft 0kts
19-Feb-18 12:20 33.126771 -117.280596 359 334ft 4kts
19-Feb-18 12:21 33.127310 -117.280654 43 334ft 6kts
19-Feb-18 12:22 33.128083 -117.276053 78 334ft 18kts
19-Feb-18 12:23 33.128591 -117.272955 54 334ft 1kts
19-Feb-18 12:24 33.128942 -117.272589 33 334ft 7kts
19-Feb-18 12:25 33.127775 -117.283077 260 586ft 108kts
19-Feb-18 12:26 33.121044 -117.331743 253 2804ft 174kts
19-Feb-18 12:27 33.108981 -117.388694 260 2979ft 180kts
19-Feb-18 12:28 33.099480 -117.446999 260 2979ft 179kts
19-Feb-18 12:29 33.089504 -117.505843 260 3068ft 200kts
19-Feb-18 12:30 33.125893 -117.529944 36 6042ft 258kts
19-Feb-18 12:31 33.136531 -117.440467 87 7979ft 305kts
19-Feb-18 12:32 33.137186 -117.353469 86 9757ft 316kts
19-Feb-18 12:33 33.137930 -117.255132 87 10164ft 360kts
19-Feb-18 12:34 33.138646 -117.150664 88 10825ft 369kts
19-Feb-18 12:35 33.139278 -117.036396 88 11866ft 375kts
19-Feb-18 12:36 33.139870 -116.910697 89 12749ft 389kts
19-Feb-18 12:37 33.140295 -116.797077 89 13459ft 399kts
19-Feb-18 12:38 33.140724 -116.665860 90 14157ft 410kts
19-Feb-18 12:39 33.183807 -116.553059 28 14935ft 383kts
19-Feb-18 12:40 33.266691 -116.476885 24 15721ft 381kts
19-Feb-18 12:41 33.351648 -116.402121 24 16389ft 384kts
19-Feb-18 12:42 33.437808 -116.326970 24 16861ft 389kts
19-Feb-18 12:43 33.524650 -116.251414 24 17455ft 389kts
19-Feb-18 12:44 33.613312 -116.173773 25 17821ft 398kts
19-Feb-18 12:45 33.704247 -116.099365 22 18288ft 398kts
19-Feb-18 12:46 33.796252 -116.025480 23 18777ft 399kts
19-Feb-18 12:47 33.888515 -115.951093 22 18901ft 400kts
19-Feb-18 12:48 33.980821 -115.876531 22 18939ft 400kts
19-Feb-18 12:49 34.073374 -115.801587 22 18951ft 400kts
19-Feb-18 12:50 34.160122 -115.716247 34 18948ft 417kts
19-Feb-18 12:51 34.245295 -115.620206 34 18950ft 421kts
19-Feb-18 12:52 34.331457 -115.528963 14 18944ft 394kts
19-Feb-18 12:53 34.430825 -115.483800 7 18953ft 387kts
19-Feb-18 12:54 34.531625 -115.439666 7 18955ft 387kts
19-Feb-18 12:55 34.632930 -115.395381 7 18857ft 387kts
19-Feb-18 12:56 34.734032 -115.351099 7 18857ft 387kts
19-Feb-18 12:57 34.833407 -115.308203 10 18841ft 377kts
19-Feb-18 12:58 34.931931 -115.264786 10 18842ft 378kts
19-Feb-18 12:59 35.031220 -115.221018 11 18273ft 383kts
19-Feb-18 13:00 35.128838 -115.178939 1 17364ft 364kts
19-Feb-18 13:01 35.224496 -115.175268 351 16380ft 345kts
19-Feb-18 13:02 35.317451 -115.173724 354 15363ft 326kts
19-Feb-18 13:03 35.406294 -115.171993 356 14362ft 319kts
19-Feb-18 13:04 35.492658 -115.170395 356 13368ft 312kts
19-Feb-18 13:05 35.577224 -115.168855 357 13009ft 308kts
19-Feb-18 13:06 35.662594 -115.167331 357 13008ft 309kts
19-Feb-18 13:07 35.744292 -115.165889 357 13008ft 311kts
19-Feb-18 13:08 35.834379 -115.164409 359 13009ft 334kts
19-Feb-18 13:09 35.928240 -115.145877 20 12055ft 368kts
19-Feb-18 13:10 35.993480 -115.112692 20 10502ft 316kts
19-Feb-18 13:11 36.050562 -115.083032 20 8593ft 282kts
19-Feb-18 13:12 36.106349 -115.054030 20 7039ft 265kts
19-Feb-18 13:13 36.157155 -115.047457 323 6691ft 228kts
19-Feb-18 13:14 36.184378 -115.089939 253 5415ft 194kts
19-Feb-18 13:15 36.149894 -115.086852 108 4821ft 208kts
19-Feb-18 13:16 36.171654 -115.072289 289 4093ft 156kts
19-Feb-18 13:17 36.170402 -115.106774 266 3207ft 125kts
19-Feb-18 13:18 36.167581 -115.139737 288 2818ft 113kts
19-Feb-18 13:19 36.184530 -115.164913 316 2685ft 122kts
19-Feb-18 13:20 36.202872 -115.187806 319 2287ft 108kts
19-Feb-18 13:21 36.210633 -115.197867 255 2208ft 5kts
19-Feb-18 13:22 36.210418 -115.198339 234 2208ft 5kts
19-Feb-18 13:23 36.209947 -115.199273 316 2208ft 0kts
19-Feb-18 13:24 36.209947 -115.199273 316 2208ft 0kts

Navigation Log

Ident Type
Flight plan parsing failed, navigation log unavailable